createdAt,value
2023-05-22T00:01:39.174Z,9.82
2023-05-22T00:04:06.606Z,9.70
2023-05-22T00:06:34.282Z,9.57
2023-05-22T00:09:02.198Z,8.02
2023-05-22T00:11:29.440Z,11.23
2023-05-22T00:13:57.170Z,12.57
2023-05-22T00:16:24.550Z,10.15
2023-05-22T00:18:52.083Z,11.45
2023-05-22T00:21:20.006Z,11.85
2023-05-22T00:23:47.588Z,9.98
2023-05-22T00:26:18.809Z,10.23
2023-05-22T00:28:46.463Z,11.13
2023-05-22T00:31:15.213Z,12.45
2023-05-22T00:33:42.433Z,9.63
2023-05-22T00:36:10.032Z,10.13
2023-05-22T00:38:38.295Z,9.35
2023-05-22T00:41:06.861Z,9.07
2023-05-22T00:43:34.442Z,16.02
2023-05-22T00:46:02.085Z,12.43
2023-05-22T00:48:29.328Z,10.85
2023-05-22T00:50:59.017Z,9.90
2023-05-22T00:53:30.682Z,8.20
2023-05-22T00:55:59.967Z,10.07
2023-05-22T00:58:28.119Z,9.32
2023-05-22T01:00:57.063Z,12.18
2023-05-22T01:03:30.163Z,13.82
2023-05-22T01:05:57.573Z,7.90
2023-05-22T01:08:25.145Z,9.68
2023-05-22T01:11:02.304Z,8.82
2023-05-22T01:13:42.118Z,10.38
2023-05-22T01:16:25.310Z,9.07
2023-05-22T01:19:16.331Z,7.90
2023-05-22T01:21:57.006Z,7.93
2023-05-22T01:24:43.573Z,13.38
2023-05-22T01:27:29.179Z,8.40
2023-05-22T01:30:15.116Z,9.85
2023-05-22T01:32:46.703Z,9.98
2023-05-22T01:37:44.042Z,8.10
2023-05-22T01:40:12.827Z,12.90
2023-05-22T01:42:41.410Z,9.88
2023-05-22T01:45:12.500Z,12.05
2023-05-22T01:47:40.976Z,11.10
2023-05-22T01:50:08.732Z,9.52
2023-05-22T01:53:06.206Z,10.45
2023-05-22T01:55:56.032Z,11.35
2023-05-22T01:58:56.596Z,10.35
2023-05-22T02:01:29.080Z,11.27
2023-05-22T02:03:58.333Z,10.13
2023-05-22T02:06:29.058Z,9.40
2023-05-22T02:08:56.882Z,9.73
2023-05-22T02:11:27.237Z,9.38
2023-05-22T02:13:55.895Z,10.13
2023-05-22T02:16:24.054Z,11.77
2023-05-22T02:18:54.286Z,10.10
2023-05-22T02:21:22.669Z,10.95
2023-05-22T02:23:50.187Z,11.15
2023-05-22T02:26:18.598Z,12.02
2023-05-22T02:28:46.007Z,13.55
2023-05-22T02:31:13.581Z,9.68
2023-05-22T02:33:40.864Z,9.88
2023-05-22T02:36:11.014Z,13.18
2023-05-22T02:38:39.070Z,9.50
2023-05-22T02:41:07.938Z,9.00
2023-05-22T02:43:35.781Z,9.65
2023-05-22T02:46:03.145Z,11.30
2023-05-22T02:48:30.730Z,9.20
2023-05-22T02:50:58.144Z,10.20
2023-05-22T02:53:25.485Z,10.68
2023-05-22T02:55:53.331Z,12.55
2023-05-22T02:58:23.369Z,10.63
2023-05-22T03:00:53.172Z,12.27
2023-05-22T03:03:20.628Z,8.18
2023-05-22T03:05:48.118Z,10.05
2023-05-22T03:08:16.150Z,13.43
2023-05-22T03:10:43.536Z,13.57
2023-05-22T03:13:11.077Z,10.32
2023-05-22T03:15:38.615Z,9.32
2023-05-22T03:18:13.063Z,12.05
2023-05-22T03:20:42.154Z,16.50
2023-05-22T03:23:11.515Z,10.45
2023-05-22T03:25:39.084Z,11.02
2023-05-22T03:28:06.771Z,10.98
2023-05-22T03:33:12.308Z,9.88
2023-05-22T03:35:40.276Z,11.68
2023-05-22T03:38:07.561Z,8.50
2023-05-22T03:40:35.185Z,11.52
2023-05-22T03:43:02.414Z,10.27
2023-05-22T03:45:29.817Z,10.57
2023-05-22T03:47:57.693Z,10.88
2023-05-22T03:50:24.993Z,12.77
2023-05-22T03:52:52.381Z,9.50
2023-05-22T03:55:20.008Z,10.65
2023-05-22T03:57:47.448Z,10.23
2023-05-22T04:00:17.195Z,9.23
2023-05-22T04:02:47.083Z,11.07
2023-05-22T04:05:14.507Z,9.43
2023-05-22T04:07:41.791Z,10.30
2023-05-22T04:10:09.437Z,10.90
2023-05-22T04:12:36.857Z,10.20
2023-05-22T04:15:04.617Z,11.65
2023-05-22T04:17:35.607Z,11.27
2023-05-22T04:20:06.729Z,10.43
2023-05-22T04:22:34.182Z,8.50
2023-05-22T04:25:04.588Z,8.00
2023-05-22T04:27:33.308Z,10.20
2023-05-22T04:30:02.483Z,6.60
2023-05-22T04:32:30.009Z,9.27
2023-05-22T04:34:58.564Z,8.80
2023-05-22T04:37:28.764Z,12.88
2023-05-22T04:40:02.996Z,14.98
2023-05-22T04:42:31.000Z,10.98
2023-05-22T04:44:58.336Z,7.05
2023-05-22T04:47:25.735Z,6.53
2023-05-22T04:49:53.297Z,6.63
2023-05-22T04:52:21.417Z,9.80
2023-05-22T04:54:51.876Z,5.85
2023-05-22T04:57:21.418Z,8.55
2023-05-22T04:59:49.101Z,9.55
2023-05-22T05:02:16.617Z,10.23
2023-05-22T05:04:43.892Z,7.03
2023-05-22T05:07:13.590Z,6.57
2023-05-22T05:09:40.785Z,8.98
2023-05-22T05:12:08.847Z,7.90
2023-05-22T05:14:36.621Z,9.38
2023-05-22T05:17:04.809Z,16.30
2023-05-22T05:19:36.840Z,10.77
2023-05-22T05:22:04.938Z,12.85
2023-05-22T05:24:32.315Z,14.23
2023-05-22T05:27:00.069Z,11.45
2023-05-22T05:29:27.527Z,18.27
2023-05-22T05:32:04.229Z,13.35
2023-05-22T05:34:53.860Z,9.13
2023-05-22T05:37:31.301Z,10.32
2023-05-22T05:40:00.801Z,11.40
2023-05-22T05:42:28.301Z,12.18
2023-05-22T05:44:58.593Z,11.35
2023-05-22T05:47:29.941Z,11.07
2023-05-22T05:49:58.316Z,11.75
2023-05-22T05:52:32.729Z,13.60
2023-05-22T05:55:03.305Z,12.25
2023-05-22T05:57:32.164Z,12.98
2023-05-22T05:59:59.669Z,11.75
2023-05-22T06:02:50.740Z,9.80
2023-05-22T06:05:34.603Z,9.85
2023-05-22T06:08:14.393Z,18.10
2023-05-22T06:10:42.236Z,10.57
2023-05-22T06:13:31.598Z,13.82
2023-05-22T06:16:02.142Z,11.48
2023-05-22T06:18:35.008Z,13.82
2023-05-22T06:21:02.409Z,10.43
2023-05-22T06:23:29.807Z,9.35
2023-05-22T06:25:57.489Z,9.35
2023-05-22T06:28:27.734Z,9.20
2023-05-22T06:30:59.875Z,8.95
2023-05-22T06:33:29.636Z,11.00
2023-05-22T06:35:57.280Z,8.77
2023-05-22T06:38:25.119Z,12.82
2023-05-22T06:40:52.397Z,9.43
2023-05-22T06:43:23.369Z,9.13
2023-05-22T06:46:07.312Z,9.63
2023-05-22T06:48:37.688Z,12.38
2023-05-22T06:51:34.401Z,10.52
2023-05-22T06:54:07.739Z,11.15
2023-05-22T06:56:37.185Z,9.25
2023-05-22T06:59:09.949Z,11.02
2023-05-22T07:02:03.728Z,10.07
2023-05-22T07:04:50.354Z,13.88
2023-05-22T07:09:49.297Z,9.52
2023-05-22T07:12:17.979Z,12.95
2023-05-22T07:14:45.924Z,12.18
2023-05-22T07:17:13.651Z,9.85
2023-05-22T07:19:44.591Z,11.47
2023-05-22T07:22:11.836Z,11.70
2023-05-22T07:24:40.298Z,11.70
2023-05-22T07:27:09.324Z,12.85
2023-05-22T07:29:38.184Z,11.45
2023-05-22T07:32:07.286Z,8.80
2023-05-22T07:34:35.880Z,9.07
2023-05-22T07:37:11.445Z,10.30
2023-05-22T07:39:39.737Z,9.13
2023-05-22T07:42:07.867Z,12.48
2023-05-22T07:44:41.454Z,10.55
2023-05-22T07:47:09.395Z,12.90
2023-05-22T07:49:37.060Z,7.05
2023-05-22T07:52:04.730Z,7.68
2023-05-22T07:54:32.161Z,8.70
2023-05-22T07:57:03.347Z,7.15
2023-05-22T07:59:35.843Z,7.78
2023-05-22T08:02:03.156Z,10.63
2023-05-22T08:04:30.650Z,10.20
2023-05-22T08:06:57.989Z,9.15
2023-05-22T08:09:25.790Z,11.48
2023-05-22T08:11:53.187Z,8.90
2023-05-22T08:14:22.258Z,7.32
2023-05-22T08:16:49.673Z,7.85
2023-05-22T08:19:17.274Z,7.88
2023-05-22T08:21:44.709Z,6.53
2023-05-22T08:24:11.915Z,6.68
2023-05-22T08:26:40.492Z,9.05
2023-05-22T08:29:07.766Z,8.68
2023-05-22T08:31:36.043Z,7.50
2023-05-22T08:34:04.884Z,6.93
2023-05-22T08:36:34.098Z,8.95
2023-05-22T08:39:02.208Z,7.25
2023-05-22T08:41:30.348Z,7.05
2023-05-22T08:43:58.042Z,7.20
2023-05-22T08:46:26.656Z,6.28
2023-05-22T08:48:57.966Z,5.05
2023-05-22T08:51:34.375Z,8.55
2023-05-22T08:54:06.915Z,7.47
2023-05-22T08:56:39.683Z,5.97
2023-05-22T08:59:13.607Z,6.90
2023-05-22T09:01:41.052Z,6.20
2023-05-22T09:04:08.847Z,11.05
2023-05-22T09:06:38.703Z,5.07
2023-05-22T09:09:06.090Z,4.50
2023-05-22T09:11:33.461Z,6.93
2023-05-22T09:14:10.850Z,5.03
2023-05-22T09:16:49.641Z,5.05
2023-05-22T09:19:17.144Z,6.22
2023-05-22T09:21:44.747Z,5.22
2023-05-22T09:24:12.346Z,7.72
2023-05-22T09:26:40.316Z,10.40
2023-05-22T09:29:08.177Z,7.80
2023-05-22T09:31:43.376Z,6.68
2023-05-22T09:34:14.509Z,12.38
2023-05-22T09:36:42.801Z,6.20
2023-05-22T09:39:11.229Z,6.00
2023-05-22T09:41:40.594Z,5.05
2023-05-22T09:44:14.081Z,7.65
2023-05-22T09:46:48.145Z,7.03
2023-05-22T09:49:17.252Z,9.32
2023-05-22T09:51:48.473Z,5.13
2023-05-22T09:54:17.755Z,7.22
2023-05-22T09:56:48.118Z,8.82
2023-05-22T09:59:20.927Z,6.40
2023-05-22T10:01:50.357Z,6.13
2023-05-22T10:04:19.485Z,7.57
2023-05-22T10:07:02.472Z,8.18
2023-05-22T10:09:34.346Z,5.82
2023-05-22T10:12:09.804Z,7.88
2023-05-22T10:14:38.463Z,5.57
2023-05-22T10:17:07.371Z,7.75
2023-05-22T10:19:39.732Z,8.98
2023-05-22T10:22:16.964Z,9.52
2023-05-22T10:24:47.952Z,8.07
2023-05-22T10:27:15.633Z,7.45
2023-05-22T10:29:55.880Z,9.27
2023-05-22T10:32:29.565Z,7.67
2023-05-22T10:35:06.941Z,11.10
2023-05-22T10:37:52.026Z,4.95
2023-05-22T10:40:29.212Z,6.15
2023-05-22T10:43:01.383Z,7.05
2023-05-22T10:45:30.152Z,5.75
2023-05-22T10:48:08.601Z,8.27
2023-05-22T10:50:37.247Z,7.30
2023-05-22T10:53:21.445Z,7.85
2023-05-22T10:55:54.196Z,10.75
2023-05-22T10:58:37.454Z,7.78
2023-05-22T11:01:14.113Z,7.85
2023-05-22T11:03:59.128Z,9.77
2023-05-22T11:07:01.943Z,9.82
2023-05-22T11:09:43.461Z,6.07
2023-05-22T11:14:53.645Z,9.48
2023-05-22T11:17:29.569Z,7.00
2023-05-22T11:20:19.323Z,6.63
2023-05-22T11:23:08.640Z,8.93
2023-05-22T11:25:37.818Z,9.25
2023-05-22T11:28:06.605Z,12.05
2023-05-22T11:30:35.030Z,6.60
2023-05-22T11:33:03.178Z,9.20
2023-05-22T11:35:31.229Z,11.55
2023-05-22T11:37:59.171Z,7.10
2023-05-22T11:40:29.817Z,8.07
2023-05-22T11:42:57.615Z,4.68
2023-05-22T11:45:26.154Z,10.00
2023-05-22T11:47:53.438Z,7.80
2023-05-22T11:50:33.485Z,5.30
2023-05-22T11:53:08.287Z,7.25
2023-05-22T11:55:35.995Z,6.63
2023-05-22T11:58:03.403Z,5.20
2023-05-22T12:00:34.059Z,6.05
2023-05-22T12:03:01.602Z,7.50
2023-05-22T12:05:31.834Z,4.50
2023-05-22T12:07:59.481Z,7.63
2023-05-22T12:10:26.890Z,7.05
2023-05-22T12:12:55.236Z,3.38
2023-05-22T12:15:24.345Z,7.15
2023-05-22T12:17:56.059Z,5.85
2023-05-22T12:20:23.476Z,3.97
2023-05-22T12:22:50.776Z,7.15
2023-05-22T12:25:18.397Z,8.88
2023-05-22T12:27:46.173Z,6.72
2023-05-22T12:30:14.767Z,5.15
2023-05-22T12:32:46.955Z,9.52
2023-05-22T12:35:18.422Z,7.85
2023-05-22T12:40:16.926Z,7.40
2023-05-22T12:42:45.735Z,5.32
2023-05-22T12:45:13.584Z,5.28
2023-05-22T12:47:41.250Z,4.63
2023-05-22T12:50:09.150Z,6.30
2023-05-22T12:52:36.840Z,5.68
2023-05-22T12:55:04.703Z,5.07
2023-05-22T12:57:33.135Z,4.13
2023-05-22T13:00:00.481Z,6.50
2023-05-22T13:02:27.824Z,10.80
2023-05-22T13:04:55.372Z,6.32
2023-05-22T13:07:22.898Z,7.07
2023-05-22T13:09:50.177Z,9.00
2023-05-22T13:12:19.586Z,7.25
2023-05-22T13:14:47.317Z,5.50
2023-05-22T13:17:14.532Z,4.55
2023-05-22T13:19:42.111Z,4.65
2023-05-22T13:22:09.368Z,4.57
2023-05-22T13:24:36.734Z,6.60
2023-05-22T13:27:04.251Z,9.38
2023-05-22T13:29:32.494Z,7.25
2023-05-22T13:32:00.789Z,8.05
2023-05-22T13:34:29.179Z,3.95
2023-05-22T13:36:56.909Z,5.43
2023-05-22T13:39:24.469Z,4.90
2023-05-22T13:41:54.868Z,7.00
2023-05-22T13:44:22.199Z,6.72
2023-05-22T13:46:49.636Z,5.95
2023-05-22T13:49:17.245Z,6.63
2023-05-22T13:51:44.625Z,6.75
2023-05-22T13:54:11.989Z,5.10
2023-05-22T13:56:39.653Z,6.93
2023-05-22T13:59:09.196Z,5.25
2023-05-22T14:01:36.816Z,6.25
2023-05-22T14:04:06.113Z,5.97
2023-05-22T14:06:33.324Z,5.70
2023-05-22T14:09:01.051Z,5.90
2023-05-22T14:11:28.333Z,4.30
2023-05-22T14:13:55.605Z,5.70
2023-05-22T14:16:23.206Z,6.47
2023-05-22T14:18:50.644Z,5.15
2023-05-22T14:21:19.071Z,4.75
2023-05-22T14:23:46.545Z,5.90
2023-05-22T14:26:14.607Z,5.60
2023-05-22T14:28:42.534Z,3.63
2023-05-22T14:31:09.899Z,5.68
2023-05-22T14:33:37.488Z,5.00
2023-05-22T14:36:04.981Z,7.22
2023-05-22T14:38:36.388Z,9.23
2023-05-22T14:43:31.025Z,3.70
2023-05-22T14:45:59.367Z,5.22
2023-05-22T14:48:26.913Z,6.10
2023-05-22T14:50:54.438Z,4.93
2023-05-22T14:53:21.859Z,7.15
2023-05-22T14:55:49.553Z,5.55
2023-05-22T14:58:17.018Z,10.55
2023-05-22T15:00:46.081Z,5.85
2023-05-22T15:03:13.763Z,7.20
2023-05-22T15:05:41.461Z,5.88
2023-05-22T15:08:08.922Z,5.95
2023-05-22T15:10:37.336Z,8.07
2023-05-22T15:13:04.641Z,7.53
2023-05-22T15:15:32.360Z,9.95
2023-05-22T15:18:02.905Z,7.07
2023-05-22T15:20:30.965Z,8.77
2023-05-22T15:22:59.420Z,4.97
2023-05-22T15:25:26.820Z,7.82
2023-05-22T15:27:54.125Z,7.68
2023-05-22T15:30:23.562Z,4.45
2023-05-22T15:32:51.142Z,5.75
2023-05-22T15:35:18.875Z,5.65
2023-05-22T15:37:46.622Z,5.75
2023-05-22T15:40:17.601Z,6.97
2023-05-22T15:42:45.092Z,4.63
2023-05-22T15:45:12.534Z,5.50
2023-05-22T15:47:40.001Z,4.05
2023-05-22T15:50:07.832Z,5.57
2023-05-22T15:52:35.414Z,3.13
2023-05-22T15:55:02.975Z,4.47
2023-05-22T15:57:30.586Z,8.85
2023-05-22T15:59:57.917Z,7.13
2023-05-22T16:02:25.802Z,4.70
2023-05-22T16:04:53.328Z,3.95
2023-05-22T16:07:20.694Z,7.05
2023-05-22T16:09:50.250Z,7.55
2023-05-22T16:12:18.497Z,9.70
2023-05-22T16:14:45.881Z,6.43
2023-05-22T16:17:13.802Z,7.43
2023-05-22T16:19:41.068Z,6.82
2023-05-22T16:22:08.673Z,3.88
2023-05-22T16:24:36.040Z,9.02
2023-05-22T16:27:03.727Z,5.45
2023-05-22T16:29:32.590Z,7.78
2023-05-22T16:32:00.090Z,5.80
2023-05-22T16:34:27.459Z,8.10
2023-05-22T16:36:54.724Z,6.95
2023-05-22T16:39:21.930Z,7.70
2023-05-22T16:41:50.089Z,8.07
2023-05-22T16:44:18.843Z,6.90
2023-05-22T16:46:46.195Z,7.18
2023-05-22T16:49:13.522Z,4.50
2023-05-22T16:51:41.030Z,5.78
2023-05-22T16:54:08.488Z,8.75
2023-05-22T16:56:35.910Z,4.57
2023-05-22T16:59:04.813Z,6.93
2023-05-22T17:01:32.273Z,8.35
2023-05-22T17:03:59.706Z,6.97
2023-05-22T17:06:27.943Z,6.90
2023-05-22T17:08:56.171Z,5.05
2023-05-22T17:11:25.036Z,4.72
2023-05-22T17:13:52.929Z,4.97
2023-05-22T17:16:21.232Z,7.65
2023-05-22T17:18:48.663Z,5.00
2023-05-22T17:21:17.535Z,7.03
2023-05-22T17:23:45.073Z,5.38
2023-05-22T17:26:14.445Z,5.18
2023-05-22T17:28:41.918Z,5.43
2023-05-22T17:31:09.775Z,6.60
2023-05-22T17:33:37.524Z,6.35
2023-05-22T17:36:05.782Z,8.30
2023-05-22T17:38:33.530Z,8.13
2023-05-22T17:41:01.543Z,7.82
2023-05-22T17:43:30.030Z,5.57
2023-05-22T17:45:58.073Z,6.45
2023-05-22T17:48:27.679Z,6.85
2023-05-22T17:50:55.978Z,6.80
2023-05-22T17:53:45.941Z,5.32
2023-05-22T17:56:28.495Z,6.55
2023-05-22T17:59:08.001Z,7.90
2023-05-22T18:01:52.356Z,6.40
2023-05-22T18:04:41.123Z,4.80
2023-05-22T18:07:27.658Z,7.05
2023-05-22T18:10:28.170Z,5.22
2023-05-22T18:13:10.982Z,7.72
2023-05-22T18:15:57.041Z,4.30
2023-05-22T18:18:39.409Z,4.22
2023-05-22T18:21:21.160Z,5.93
2023-05-22T18:23:58.346Z,7.50
2023-05-22T18:26:41.473Z,5.10
2023-05-22T18:29:27.235Z,9.18
2023-05-22T18:32:04.873Z,6.57
2023-05-22T18:34:53.064Z,6.80
2023-05-22T18:37:33.617Z,7.68
2023-05-22T18:40:41.223Z,8.32
2023-05-22T18:43:30.774Z,7.32
2023-05-22T18:46:11.457Z,6.45
2023-05-22T18:49:10.251Z,6.72
2023-05-22T18:52:11.246Z,7.03
2023-05-22T18:54:51.860Z,8.30
2023-05-22T18:57:51.869Z,8.07
2023-05-22T19:00:32.605Z,7.38
2023-05-22T19:03:21.259Z,7.15
2023-05-22T19:05:55.374Z,5.15
2023-05-22T19:08:44.589Z,7.10
2023-05-22T19:14:13.588Z,6.10
2023-05-22T19:17:00.332Z,6.00
2023-05-22T19:19:36.988Z,6.15
2023-05-22T19:22:20.672Z,5.68
2023-05-22T19:25:11.929Z,9.18
2023-05-22T19:27:43.174Z,4.27
2023-05-22T19:33:08.914Z,4.80
2023-05-22T19:38:53.093Z,6.70
2023-05-22T19:42:00.178Z,8.88
2023-05-22T19:44:36.214Z,6.47
2023-05-22T19:47:05.618Z,5.70
2023-05-22T19:49:41.825Z,6.97
2023-05-22T19:52:17.583Z,7.38
2023-05-22T19:55:21.088Z,9.30
2023-05-22T19:57:52.906Z,5.65
2023-05-22T20:00:42.341Z,5.95
2023-05-22T20:03:21.864Z,9.68
2023-05-22T20:05:57.055Z,7.88
2023-05-22T20:08:34.652Z,6.22
2023-05-22T20:11:18.643Z,6.38
2023-05-22T20:13:57.275Z,6.68
2023-05-22T20:16:42.028Z,4.38
2023-05-22T20:19:17.763Z,6.50
2023-05-22T20:22:25.065Z,6.28
2023-05-22T20:25:30.262Z,5.90
2023-05-22T20:28:27.518Z,7.00
2023-05-22T20:31:18.744Z,6.07
2023-05-22T20:33:57.696Z,6.22
2023-05-22T20:40:16.054Z,6.63
2023-05-22T20:43:09.642Z,7.32
2023-05-22T20:49:12.862Z,9.02
2023-05-22T20:54:51.180Z,6.30
2023-05-22T20:57:27.220Z,6.63
2023-05-22T21:00:22.397Z,6.15
2023-05-22T21:03:09.796Z,8.10
2023-05-22T21:05:50.561Z,6.60
2023-05-22T21:08:32.150Z,8.75
2023-05-22T21:11:24.387Z,7.80
2023-05-22T21:14:11.477Z,6.72
2023-05-22T21:17:01.081Z,6.10
2023-05-22T21:20:00.240Z,8.77
2023-05-22T21:22:38.198Z,6.60
2023-05-22T21:25:24.758Z,7.05
2023-05-22T21:27:56.338Z,6.88
2023-05-22T21:33:46.950Z,6.53
2023-05-22T21:36:23.176Z,4.80
2023-05-22T21:39:01.792Z,6.30
2023-05-22T21:42:05.053Z,7.35
2023-05-22T21:44:44.124Z,5.53
2023-05-22T21:47:24.698Z,6.40
2023-05-22T21:50:00.321Z,4.75
2023-05-22T21:52:41.252Z,7.25
2023-05-22T21:55:22.987Z,6.15
2023-05-22T21:58:03.787Z,4.78
2023-05-22T22:00:50.933Z,5.93
2023-05-22T22:03:29.655Z,5.20
2023-05-22T22:06:09.512Z,7.40
2023-05-22T22:08:42.734Z,5.78
2023-05-22T22:11:30.072Z,6.25
2023-05-22T22:14:05.488Z,5.43
2023-05-22T22:16:53.843Z,6.75
2023-05-22T22:19:27.782Z,6.70
2023-05-22T22:22:17.962Z,8.60
2023-05-22T22:25:06.637Z,7.57
2023-05-22T22:27:48.994Z,6.78
2023-05-22T22:30:33.314Z,9.60
2023-05-22T22:33:20.008Z,8.05
2023-05-22T22:35:56.990Z,5.60
2023-05-22T22:38:29.821Z,5.97
2023-05-22T22:41:14.947Z,5.15
2023-05-22T22:44:02.738Z,6.43
2023-05-22T22:47:11.042Z,6.43
2023-05-22T22:50:13.885Z,7.50
2023-05-22T22:52:54.746Z,7.63
2023-05-22T22:55:34.731Z,12.98
2023-05-22T22:58:23.158Z,9.13
2023-05-22T23:00:58.848Z,7.22
2023-05-22T23:03:45.372Z,7.03
2023-05-22T23:06:15.119Z,8.18
2023-05-22T23:09:06.967Z,6.75
2023-05-22T23:14:32.950Z,6.35
2023-05-22T23:23:40.938Z,5.95
2023-05-22T23:29:21.331Z,8.13
2023-05-22T23:31:57.927Z,6.13
2023-05-22T23:34:39.593Z,7.78
2023-05-22T23:37:24.622Z,5.20
2023-05-22T23:39:58.367Z,7.45
2023-05-22T23:42:58.176Z,6.80
2023-05-22T23:48:25.746Z,7.53
2023-05-22T23:51:32.228Z,7.03
2023-05-22T23:54:07.663Z,9.75
2023-05-22T23:56:39.182Z,6.72
2023-05-22T23:59:25.056Z,5.80
